createdAt,value
2018-01-08T00:00:03.684Z,20.73
2018-01-08T00:02:31.880Z,19.87
2018-01-08T00:05:00.076Z,20.30
2018-01-08T00:07:28.164Z,19.17
2018-01-08T00:09:56.257Z,19.35
2018-01-08T00:12:24.360Z,18.25
2018-01-08T00:14:52.661Z,18.52
2018-01-08T00:17:20.840Z,20.10
2018-01-08T00:19:49.040Z,19.48
2018-01-08T00:22:17.120Z,18.20
2018-01-08T00:24:45.219Z,18.40
2018-01-08T00:27:13.324Z,19.02
2018-01-08T00:29:41.719Z,19.87
2018-01-08T00:32:10.002Z,17.85
2018-01-08T00:34:38.205Z,18.33
2018-01-08T00:37:06.290Z,21.65
2018-01-08T00:39:34.498Z,18.23
2018-01-08T00:42:02.681Z,18.65
2018-01-08T00:44:30.877Z,20.10
2018-01-08T00:46:59.084Z,18.60
2018-01-08T00:49:27.275Z,19.98
2018-01-08T00:51:55.461Z,20.83
2018-01-08T00:54:23.654Z,20.62
2018-01-08T00:56:51.857Z,19.15
2018-01-08T00:59:20.074Z,20.98
2018-01-08T01:01:48.338Z,17.90
2018-01-08T01:04:16.734Z,17.92
2018-01-08T01:06:45.040Z,18.80
2018-01-08T01:09:13.328Z,19.80
2018-01-08T01:11:41.635Z,17.20
2018-01-08T01:14:09.915Z,17.02
2018-01-08T01:16:38.075Z,17.65
2018-01-08T01:19:06.086Z,17.00
2018-01-08T01:21:34.300Z,15.55
2018-01-08T01:24:02.396Z,17.80
2018-01-08T01:26:30.480Z,16.58
2018-01-08T01:28:58.594Z,16.60
2018-01-08T01:31:26.875Z,17.15
2018-01-08T01:33:54.962Z,15.05
2018-01-08T01:36:23.065Z,15.27
2018-01-08T01:38:51.157Z,15.52
2018-01-08T01:41:19.458Z,16.65
2018-01-08T01:43:47.656Z,16.73
2018-01-08T01:46:15.935Z,16.70
2018-01-08T01:48:44.136Z,15.10
2018-01-08T01:51:12.436Z,17.25
2018-01-08T01:53:40.736Z,16.12
2018-01-08T01:56:09.021Z,19.80
2018-01-08T01:58:37.115Z,17.90
2018-01-08T02:01:05.174Z,18.90
2018-01-08T02:03:33.200Z,18.87
2018-01-08T02:06:01.400Z,18.40
2018-01-08T02:08:29.595Z,18.40
2018-01-08T02:10:57.779Z,17.87
2018-01-08T02:13:26.296Z,21.05
2018-01-08T02:15:54.474Z,19.90
2018-01-08T02:18:22.663Z,20.88
2018-01-08T02:20:50.981Z,21.87
2018-01-08T02:23:19.264Z,21.37
2018-01-08T02:25:47.461Z,20.45
2018-01-08T02:28:15.754Z,21.67
2018-01-08T02:30:44.165Z,21.15
2018-01-08T02:33:12.560Z,17.87
2018-01-08T02:35:40.760Z,19.90
2018-01-08T02:38:08.940Z,19.08
2018-01-08T02:40:37.900Z,19.75
2018-01-08T02:43:05.907Z,17.70
2018-01-08T02:45:34.136Z,16.70
2018-01-08T02:48:02.342Z,17.35
2018-01-08T02:50:30.421Z,17.87
2018-01-08T02:52:58.618Z,18.42
2018-01-08T02:55:26.719Z,17.58
2018-01-08T02:57:54.903Z,18.37
2018-01-08T03:00:23.201Z,18.10
2018-01-08T03:02:51.600Z,18.92
2018-01-08T03:05:19.795Z,18.30
2018-01-08T03:07:48.101Z,18.02
2018-01-08T03:10:16.396Z,19.23
2018-01-08T03:12:44.783Z,20.17
2018-01-08T03:15:14.014Z,21.40
2018-01-08T03:17:42.315Z,21.73
2018-01-08T03:20:10.405Z,22.25
2018-01-08T03:22:38.480Z,23.92
2018-01-08T03:25:06.577Z,23.95
2018-01-08T03:27:34.774Z,24.05
2018-01-08T03:30:02.977Z,22.40
2018-01-08T03:32:31.158Z,25.23
2018-01-08T03:34:59.259Z,24.35
2018-01-08T03:37:27.454Z,23.52
2018-01-08T03:39:55.860Z,23.92
2018-01-08T03:42:24.154Z,23.75
2018-01-08T03:44:52.341Z,24.20
2018-01-08T03:47:20.634Z,22.75
2018-01-08T03:49:48.934Z,22.25
2018-01-08T03:52:17.224Z,20.98
2018-01-08T03:54:45.522Z,23.17
2018-01-08T03:57:13.815Z,21.05
2018-01-08T03:59:42.024Z,22.55
2018-01-08T04:02:10.214Z,19.65
2018-01-08T04:04:38.218Z,21.60
2018-01-08T04:07:07.021Z,19.20
2018-01-08T04:09:35.106Z,21.15
2018-01-08T04:12:03.303Z,19.42
2018-01-08T04:14:31.400Z,18.35
2018-01-08T04:16:59.583Z,20.17
2018-01-08T04:19:27.681Z,19.25
2018-01-08T04:21:55.963Z,22.15
2018-01-08T04:24:24.261Z,20.02
2018-01-08T04:26:52.565Z,19.83
2018-01-08T04:29:20.856Z,21.02
2018-01-08T04:31:49.162Z,23.05
2018-01-08T04:34:17.457Z,23.95
2018-01-08T04:36:45.757Z,24.55
2018-01-08T04:39:13.843Z,26.08
2018-01-08T04:41:42.037Z,28.42
2018-01-08T04:44:10.241Z,30.05
2018-01-08T04:46:38.337Z,29.15
2018-01-08T04:49:06.518Z,28.33
2018-01-08T04:51:34.720Z,26.35
2018-01-08T04:54:02.918Z,28.15
2018-01-08T04:56:30.995Z,27.37
2018-01-08T04:58:59.916Z,25.70
2018-01-08T05:01:28.001Z,25.17
2018-01-08T05:03:56.297Z,26.05
2018-01-08T05:06:24.597Z,25.55
2018-01-08T05:08:52.884Z,23.08
2018-01-08T05:11:21.195Z,22.98
2018-01-08T05:13:49.498Z,23.20
2018-01-08T05:16:17.878Z,21.85
2018-01-08T05:18:46.079Z,23.62
2018-01-08T05:21:14.277Z,22.70
2018-01-08T05:23:42.577Z,24.77
2018-01-08T05:26:10.666Z,25.75
2018-01-08T05:28:38.905Z,26.80
2018-01-08T05:31:07.152Z,25.83
2018-01-08T05:33:35.344Z,26.55
2018-01-08T05:36:03.550Z,26.25
2018-01-08T05:38:31.734Z,27.62
2018-01-08T05:41:00.049Z,29.00
2018-01-08T05:43:28.321Z,27.17
2018-01-08T05:45:56.632Z,27.67
2018-01-08T05:48:24.918Z,27.45
2018-01-08T05:50:53.210Z,27.15
2018-01-08T05:53:21.506Z,28.48
2018-01-08T05:55:49.816Z,25.42
2018-01-08T05:58:17.996Z,24.98
2018-01-08T06:00:46.101Z,23.77
2018-01-08T06:03:14.302Z,25.40
2018-01-08T06:05:42.481Z,22.35
2018-01-08T06:08:10.684Z,22.05
2018-01-08T06:10:38.706Z,21.35
2018-01-08T06:13:06.980Z,23.35
2018-01-08T06:15:35.360Z,20.37
2018-01-08T06:18:03.562Z,22.80
2018-01-08T06:20:31.659Z,21.65
2018-01-08T06:22:59.944Z,23.55
2018-01-08T06:25:28.246Z,23.02
2018-01-08T06:27:56.545Z,22.55
2018-01-08T06:30:24.835Z,21.67
2018-01-08T06:32:53.174Z,22.10
2018-01-08T06:35:21.423Z,21.50
2018-01-08T06:37:49.636Z,21.27
2018-01-08T06:40:17.826Z,22.90
2018-01-08T06:42:46.025Z,21.65
2018-01-08T06:45:14.112Z,24.15
2018-01-08T06:47:42.302Z,22.52
2018-01-08T06:50:10.399Z,26.58
2018-01-08T06:52:38.442Z,24.48
2018-01-08T06:55:06.579Z,23.95
2018-01-08T06:57:34.772Z,27.60
2018-01-08T07:00:03.076Z,31.60
2018-01-08T07:02:31.356Z,31.30
2018-01-08T07:04:59.565Z,34.17
2018-01-08T07:07:27.863Z,35.25
2018-01-08T07:09:56.076Z,32.40
2018-01-08T07:12:24.357Z,32.92
2018-01-08T07:14:52.549Z,31.15
2018-01-08T07:17:20.637Z,30.40
2018-01-08T07:19:48.834Z,43.10
2018-01-08T07:22:17.036Z,36.83
2018-01-08T07:24:45.214Z,38.35
2018-01-08T07:27:13.422Z,37.58
2018-01-08T07:29:41.619Z,35.55
2018-01-08T07:32:10.219Z,33.78
2018-01-08T07:34:38.261Z,31.58
2018-01-08T07:37:06.451Z,31.87
2018-01-08T07:39:34.796Z,28.67
2018-01-08T07:42:03.091Z,28.10
2018-01-08T07:44:31.281Z,26.33
2018-01-08T07:46:59.381Z,25.55
2018-01-08T07:49:27.561Z,25.05
2018-01-08T07:51:55.771Z,25.33
2018-01-08T07:54:23.959Z,25.80
2018-01-08T07:56:52.265Z,25.02
2018-01-08T07:59:20.458Z,25.85
2018-01-08T08:01:48.639Z,25.70
2018-01-08T08:04:16.844Z,24.00
2018-01-08T08:06:45.136Z,23.85
2018-01-08T08:09:13.328Z,24.95
2018-01-08T08:11:41.436Z,24.65
2018-01-08T08:14:09.926Z,26.70
2018-01-08T08:16:37.948Z,25.48
2018-01-08T08:19:06.201Z,29.77
2018-01-08T08:21:34.302Z,29.63
2018-01-08T08:24:02.603Z,31.35
2018-01-08T08:26:30.901Z,31.45
2018-01-08T08:28:59.101Z,29.52
2018-01-08T08:31:27.383Z,25.67
2018-01-08T08:33:55.688Z,28.42
2018-01-08T08:36:23.777Z,25.42
2018-01-08T08:38:51.980Z,28.45
2018-01-08T08:41:20.164Z,26.55
2018-01-08T08:43:48.365Z,25.55
2018-01-08T08:46:16.445Z,25.83
2018-01-08T08:48:44.646Z,24.83
2018-01-08T08:51:12.740Z,27.92
2018-01-08T08:53:40.926Z,27.77
2018-01-08T08:56:09.019Z,24.30
2018-01-08T08:58:37.320Z,24.37
2018-01-08T09:01:05.343Z,25.73
2018-01-08T09:03:33.503Z,25.02
2018-01-08T09:06:01.695Z,27.25
2018-01-08T09:08:29.996Z,26.37
2018-01-08T09:10:58.156Z,24.65
2018-01-08T09:13:26.400Z,23.62
2018-01-08T09:15:54.690Z,25.52
2018-01-08T09:18:22.868Z,22.80
2018-01-08T09:20:50.970Z,25.45
2018-01-08T09:23:20.386Z,24.52
2018-01-08T09:25:48.484Z,23.15
2018-01-08T09:28:16.684Z,24.98
2018-01-08T09:30:44.877Z,25.05
2018-01-08T09:33:12.964Z,23.92
2018-01-08T09:35:41.147Z,22.75
2018-01-08T09:38:09.345Z,24.48
2018-01-08T09:40:37.643Z,23.33
2018-01-08T09:43:05.635Z,23.42
2018-01-08T09:45:33.826Z,22.80
2018-01-08T09:48:01.926Z,22.35
2018-01-08T09:50:30.127Z,22.30
2018-01-08T09:52:58.427Z,17.62
2018-01-08T09:55:26.528Z,13.40
2018-01-08T09:57:54.815Z,10.75
2018-01-08T10:00:23.092Z,12.90
2018-01-08T10:02:51.190Z,13.73
2018-01-08T10:05:19.395Z,11.20
2018-01-08T10:07:47.583Z,10.60
2018-01-08T10:10:15.771Z,10.80
2018-01-08T10:12:43.867Z,10.07
2018-01-08T10:15:12.057Z,10.43
2018-01-08T10:17:40.055Z,10.05
2018-01-08T10:20:08.235Z,11.15
2018-01-08T10:22:36.334Z,12.18
2018-01-08T10:25:04.535Z,11.65
2018-01-08T10:27:32.594Z,11.10
2018-01-08T10:30:00.814Z,8.52
2018-01-08T10:32:28.934Z,9.35
2018-01-08T10:34:57.214Z,10.30
2018-01-08T10:37:25.514Z,9.88
2018-01-08T10:39:53.695Z,10.55
2018-01-08T10:42:21.796Z,10.77
2018-01-08T10:44:49.982Z,10.60
2018-01-08T10:47:18.001Z,10.55
2018-01-08T10:49:46.388Z,11.25
2018-01-08T10:52:14.579Z,11.90
2018-01-08T10:54:42.861Z,12.00
2018-01-08T10:57:11.173Z,12.88
2018-01-08T10:59:39.464Z,21.27
2018-01-08T11:02:07.863Z,25.30
2018-01-08T11:04:36.156Z,30.42
2018-01-08T11:07:04.442Z,27.80
2018-01-08T11:09:32.540Z,27.45
2018-01-08T11:12:00.626Z,25.05
2018-01-08T11:14:28.820Z,26.77
2018-01-08T11:16:56.848Z,27.15
2018-01-08T11:19:25.121Z,26.00
2018-01-08T11:21:53.302Z,23.77
2018-01-08T11:24:21.510Z,19.73
2018-01-08T11:26:49.706Z,18.70
2018-01-08T11:29:18.007Z,17.15
2018-01-08T11:31:46.297Z,16.65
2018-01-08T11:34:14.685Z,16.92
2018-01-08T11:36:42.985Z,15.55
2018-01-08T11:39:11.290Z,16.98
2018-01-08T11:41:39.678Z,17.55
2018-01-08T11:44:08.082Z,16.12
2018-01-08T11:46:36.492Z,14.98
2018-01-08T11:49:04.687Z,13.82
2018-01-08T11:51:32.783Z,17.55
2018-01-08T11:54:00.956Z,16.75
2018-01-08T11:56:29.164Z,17.37
2018-01-08T11:58:57.244Z,19.50
2018-01-08T12:01:25.444Z,20.17
2018-01-08T12:03:53.634Z,22.42
2018-01-08T12:06:21.833Z,23.40
2018-01-08T12:08:49.919Z,25.95
2018-01-08T12:11:18.126Z,27.95
2018-01-08T12:13:46.517Z,25.90
2018-01-08T12:16:14.823Z,27.65
2018-01-08T12:18:43.106Z,26.67
2018-01-08T12:21:11.407Z,26.67
2018-01-08T12:23:39.914Z,26.70
2018-01-08T12:26:08.003Z,25.20
2018-01-08T12:28:36.099Z,25.98
2018-01-08T12:31:04.175Z,26.10
2018-01-08T12:33:32.383Z,25.45
2018-01-08T12:36:00.567Z,27.02
2018-01-08T12:38:28.877Z,24.87
2018-01-08T12:40:57.160Z,25.77
2018-01-08T12:43:25.361Z,26.55
2018-01-08T12:45:53.557Z,26.40
2018-01-08T12:48:21.746Z,24.08
2018-01-08T12:50:49.953Z,23.08
2018-01-08T12:53:18.236Z,25.85
2018-01-08T12:55:46.439Z,22.50
2018-01-08T12:58:14.536Z,22.45
2018-01-08T13:00:42.716Z,23.92
2018-01-08T13:03:11.117Z,23.98
2018-01-08T13:05:39.217Z,21.90
2018-01-08T13:08:07.416Z,20.90
2018-01-08T13:10:35.600Z,21.12
2018-01-08T13:13:03.697Z,20.33
2018-01-08T13:15:31.816Z,19.40
2018-01-08T13:17:59.767Z,22.00
2018-01-08T13:20:27.875Z,21.33
2018-01-08T13:22:56.180Z,20.15
2018-01-08T13:25:24.370Z,20.88
2018-01-08T13:27:52.441Z,19.02
2018-01-08T13:30:20.550Z,21.60
2018-01-08T13:32:48.629Z,21.48
2018-01-08T13:35:16.829Z,17.30
2018-01-08T13:37:45.028Z,15.10
2018-01-08T13:40:13.130Z,17.80
2018-01-08T13:42:41.416Z,20.55
2018-01-08T13:45:09.720Z,19.05
2018-01-08T13:47:38.009Z,19.62
2018-01-08T13:50:06.094Z,19.70
2018-01-08T13:52:34.249Z,20.52
2018-01-08T13:55:03.307Z,18.15
2018-01-08T13:57:31.503Z,16.75
2018-01-08T13:59:59.477Z,18.83
2018-01-08T14:02:27.685Z,19.37
2018-01-08T14:04:55.771Z,19.67
2018-01-08T14:07:23.866Z,20.60
2018-01-08T14:09:51.969Z,17.25
2018-01-08T14:12:20.259Z,19.20
2018-01-08T14:14:48.355Z,19.12
2018-01-08T14:17:16.548Z,18.52
2018-01-08T14:19:45.041Z,19.65
2018-01-08T14:22:13.437Z,17.95
2018-01-08T14:24:41.637Z,20.62
2018-01-08T14:27:09.923Z,22.80
2018-01-08T14:29:38.064Z,21.52
2018-01-08T14:32:06.116Z,21.30
2018-01-08T14:34:34.615Z,21.85
2018-01-08T14:37:02.717Z,24.20
2018-01-08T14:39:30.908Z,24.40
2018-01-08T14:41:59.017Z,24.60
2018-01-08T14:44:27.197Z,26.45
2018-01-08T14:46:55.394Z,20.30
2018-01-08T14:49:23.482Z,22.67
2018-01-08T14:51:51.772Z,19.60
2018-01-08T14:54:20.076Z,18.92
2018-01-08T14:56:48.158Z,19.30
2018-01-08T14:59:16.374Z,20.33
2018-01-08T15:01:44.565Z,21.62
2018-01-08T15:04:12.745Z,23.35
2018-01-08T15:06:40.842Z,19.62
2018-01-08T15:09:09.039Z,18.37
2018-01-08T15:11:37.130Z,17.52
2018-01-08T15:14:05.208Z,15.85
2018-01-08T15:16:33.333Z,16.12
2018-01-08T15:19:01.488Z,16.73
2018-01-08T15:21:29.609Z,16.98
2018-01-08T15:23:57.788Z,16.80
2018-01-08T15:26:25.846Z,15.57
2018-01-08T15:28:53.994Z,15.50
2018-01-08T15:31:22.166Z,14.32
2018-01-08T15:33:50.267Z,14.70
2018-01-08T15:36:18.454Z,12.98
2018-01-08T15:38:46.544Z,12.80
2018-01-08T15:41:15.038Z,11.55
2018-01-08T15:43:43.250Z,10.65
2018-01-08T15:46:11.438Z,12.20
2018-01-08T15:48:39.527Z,12.98
2018-01-08T15:51:07.729Z,12.82
2018-01-08T15:53:35.822Z,13.00
2018-01-08T15:56:03.898Z,13.80
2018-01-08T15:58:32.109Z,13.07
2018-01-08T16:01:00.298Z,13.85
2018-01-08T16:03:28.497Z,13.98
2018-01-08T16:05:56.789Z,14.15
2018-01-08T16:08:24.981Z,15.82
2018-01-08T16:10:53.164Z,20.37
2018-01-08T16:13:21.465Z,19.55
2018-01-08T16:15:49.678Z,18.75
2018-01-08T16:18:17.966Z,16.58
2018-01-08T16:20:46.261Z,14.35
2018-01-08T16:23:14.460Z,14.10
2018-01-08T16:25:42.540Z,16.12
2018-01-08T16:28:10.744Z,13.85
2018-01-08T16:30:38.943Z,13.75
2018-01-08T16:33:07.124Z,11.88
2018-01-08T16:35:35.224Z,15.15
2018-01-08T16:38:03.424Z,13.50
2018-01-08T16:40:31.623Z,14.90
2018-01-08T16:42:59.903Z,14.68
2018-01-08T16:45:28.004Z,14.38
2018-01-08T16:47:56.205Z,13.05
2018-01-08T16:50:24.504Z,12.65
2018-01-08T16:52:52.618Z,12.10
2018-01-08T16:55:20.637Z,12.73
2018-01-08T16:57:48.878Z,12.88
2018-01-08T17:00:16.968Z,12.40
2018-01-08T17:02:45.158Z,12.95
2018-01-08T17:05:13.258Z,12.25
2018-01-08T17:07:41.438Z,13.02
2018-01-08T17:10:09.642Z,12.88
2018-01-08T17:12:37.937Z,11.05
2018-01-08T17:15:06.030Z,12.13
2018-01-08T17:17:34.215Z,11.20
2018-01-08T17:20:02.420Z,10.18
2018-01-08T17:22:30.718Z,11.75
2018-01-08T17:24:59.319Z,14.57
2018-01-08T17:27:27.504Z,14.70
2018-01-08T17:29:55.709Z,13.15
2018-01-08T17:32:24.006Z,13.55
2018-01-08T17:34:52.085Z,13.25
2018-01-08T17:37:20.134Z,13.60
2018-01-08T17:39:48.178Z,15.10
2018-01-08T17:42:17.599Z,13.95
2018-01-08T17:44:45.696Z,11.98
2018-01-08T17:47:13.981Z,12.63
2018-01-08T17:49:42.072Z,15.27
2018-01-08T17:52:10.278Z,17.60
2018-01-08T17:54:38.674Z,18.27
2018-01-08T17:57:06.867Z,16.65
2018-01-08T17:59:35.159Z,17.25
2018-01-08T18:02:03.349Z,14.52
2018-01-08T18:04:31.453Z,18.40
2018-01-08T18:06:59.854Z,15.90
2018-01-08T18:09:27.935Z,15.57
2018-01-08T18:11:56.048Z,13.05
2018-01-08T18:14:24.638Z,14.07
2018-01-08T18:16:52.757Z,14.73
2018-01-08T18:19:20.787Z,15.82
2018-01-08T18:21:48.857Z,13.62
2018-01-08T18:24:18.031Z,14.87
2018-01-08T18:26:46.211Z,14.13
2018-01-08T18:29:14.410Z,13.57
2018-01-08T18:31:42.510Z,17.25
2018-01-08T18:34:10.816Z,17.10
2018-01-08T18:36:39.105Z,17.20
2018-01-08T18:39:07.285Z,18.15
2018-01-08T18:41:35.485Z,21.20
2018-01-08T18:44:03.680Z,20.15
2018-01-08T18:46:31.779Z,18.75
2018-01-08T18:48:59.961Z,17.92
2018-01-08T18:51:28.058Z,16.77
2018-01-08T18:53:56.256Z,16.58
2018-01-08T18:56:24.337Z,16.67
2018-01-08T18:58:52.676Z,16.52
2018-01-08T19:01:21.756Z,16.50
2018-01-08T19:03:49.957Z,17.27
2018-01-08T19:06:18.064Z,20.40
2018-01-08T19:08:46.460Z,17.92
2018-01-08T19:11:14.538Z,17.30
2018-01-08T19:13:42.712Z,19.10
2018-01-08T19:16:10.929Z,16.70
2018-01-08T19:18:39.117Z,17.33
2018-01-08T19:21:07.215Z,16.10
2018-01-08T19:23:35.422Z,15.73
2018-01-08T19:26:03.595Z,14.85
2018-01-08T19:28:31.795Z,18.77
2018-01-08T19:30:59.894Z,16.85
2018-01-08T19:33:28.071Z,16.98
2018-01-08T19:35:56.182Z,15.15
2018-01-08T19:38:24.370Z,16.20
2018-01-08T19:40:52.461Z,17.35
2018-01-08T19:43:20.553Z,12.88
2018-01-08T19:45:48.653Z,12.73
2018-01-08T19:48:16.832Z,17.55
2018-01-08T19:50:44.938Z,14.65
2018-01-08T19:53:13.132Z,15.10
2018-01-08T19:55:41.215Z,14.70
2018-01-08T19:58:09.413Z,14.30
2018-01-08T20:00:37.521Z,16.55
2018-01-08T20:03:05.798Z,16.70
2018-01-08T20:05:34.065Z,19.42
2018-01-08T20:08:02.294Z,24.12
2018-01-08T20:10:30.373Z,20.75
2018-01-08T20:12:58.583Z,21.37
2018-01-08T20:15:26.810Z,25.00
2018-01-08T20:17:54.953Z,34.97
2018-01-08T20:20:23.048Z,34.75
2018-01-08T20:22:52.471Z,28.60
2018-01-08T20:25:20.410Z,26.98
2018-01-08T20:27:48.566Z,25.20
2018-01-08T20:30:16.687Z,23.62
2018-01-08T20:32:44.837Z,22.15
2018-01-08T20:35:13.142Z,24.00
2018-01-08T20:37:41.241Z,20.05
2018-01-08T20:40:09.441Z,21.95
2018-01-08T20:42:37.521Z,22.73
2018-01-08T20:45:05.721Z,20.75
2018-01-08T20:47:33.801Z,23.48
2018-01-08T20:50:02.001Z,22.95
2018-01-08T20:52:30.101Z,23.25
2018-01-08T20:54:58.281Z,19.73
2018-01-08T20:57:26.595Z,15.63
2018-01-08T20:59:54.794Z,16.75
2018-01-08T21:02:24.111Z,16.17
2018-01-08T21:04:52.359Z,16.67
2018-01-08T21:07:20.403Z,16.58
2018-01-08T21:09:48.585Z,16.95
2018-01-08T21:12:16.686Z,16.87
2018-01-08T21:14:44.866Z,16.10
2018-01-08T21:17:12.966Z,17.10
2018-01-08T21:19:41.165Z,21.15
2018-01-08T21:22:09.762Z,17.20
2018-01-08T21:24:37.963Z,15.70
2018-01-08T21:27:06.244Z,16.48
2018-01-08T21:29:34.449Z,16.65
